ITY724 LIML-LGKR
Flight info
| Callsign | ITY724 |
|---|---|
| Flight time | 1h 28m |
| Altitude | 39000 |
| Route | LOGDI DCT LURUT DCT KAPPO DCT NOSTO L612 EKVIS L869 BEDEX |
| Aircraft | A20N/M-SDE2E3FGHIRWXY/LB1 |
Departure
| Time | 2026-04-29 15:56 |
|---|---|
| Airport | Milano Linate Airport (LIML) |
Arrival
| Time | 2026-04-29 17:24 |
|---|---|
| Airport | Corfu Ioannis Kapodistrias International Airport (LGKR) |
| Time | Latitude | Longitude | Altitude | Speed | Heading |
|---|---|---|---|---|---|
| 2026-04-29 15:26 | 45.45981 | 9.28031 | 365 ft | 0 kts | 360° |
| 2026-04-29 15:43 | 45.45970 | 9.28031 | 365 ft | 2 kts | 2° |
| 2026-04-29 15:44 | 45.45955 | 9.28031 | 365 ft | 2 kts | 359° |
| 2026-04-29 15:44 | 45.45943 | 9.28031 | 365 ft | 0 kts | 0° |
| 2026-04-29 15:44 | 45.45931 | 9.28032 | 365 ft | 2 kts | 338° |
| 2026-04-29 15:44 | 45.45918 | 9.28043 | 365 ft | 2 kts | 316° |
| 2026-04-29 15:45 | 45.45909 | 9.28060 | 365 ft | 2 kts | 291° |
| 2026-04-29 15:45 | 45.45906 | 9.28076 | 365 ft | 0 kts | 273° |
| 2026-04-29 15:45 | 45.45906 | 9.28074 | 365 ft | 3 kts | 275° |
| 2026-04-29 15:45 | 45.45907 | 9.28036 | 365 ft | 2 kts | 271° |
| 2026-04-29 15:46 | 45.45907 | 9.28031 | 365 ft | 0 kts | 271° |
| 2026-04-29 15:49 | 45.45907 | 9.28024 | 365 ft | 1 kts | 271° |
| 2026-04-29 15:50 | 45.45902 | 9.28004 | 365 ft | 3 kts | 213° |
| 2026-04-29 15:50 | 45.45867 | 9.27986 | 364 ft | 8 kts | 185° |
| 2026-04-29 15:50 | 45.45790 | 9.27984 | 364 ft | 13 kts | 180° |
| 2026-04-29 15:50 | 45.45683 | 9.27987 | 363 ft | 17 kts | 178° |
| 2026-04-29 15:51 | 45.45546 | 9.27990 | 362 ft | 21 kts | 180° |
| 2026-04-29 15:51 | 45.45392 | 9.27975 | 362 ft | 23 kts | 197° |
| 2026-04-29 15:51 | 45.45229 | 9.27876 | 360 ft | 26 kts | 191° |
| 2026-04-29 15:51 | 45.45044 | 9.27885 | 359 ft | 26 kts | 174° |
| 2026-04-29 15:52 | 45.44866 | 9.27933 | 358 ft | 25 kts | 168° |
| 2026-04-29 15:52 | 45.44692 | 9.27956 | 356 ft | 24 kts | 175° |
| 2026-04-29 15:52 | 45.44522 | 9.27975 | 355 ft | 24 kts | 176° |
| 2026-04-29 15:52 | 45.44355 | 9.27994 | 353 ft | 24 kts | 174° |
| 2026-04-29 15:53 | 45.44188 | 9.28012 | 351 ft | 23 kts | 175° |
| 2026-04-29 15:53 | 45.44024 | 9.28028 | 350 ft | 23 kts | 175° |
| 2026-04-29 15:53 | 45.43863 | 9.28046 | 348 ft | 23 kts | 175° |
| 2026-04-29 15:53 | 45.43704 | 9.28062 | 347 ft | 22 kts | 175° |
| 2026-04-29 15:54 | 45.43554 | 9.28080 | 346 ft | 17 kts | 174° |
| 2026-04-29 15:54 | 45.43452 | 9.28031 | 345 ft | 16 kts | 245° |
| 2026-04-29 15:54 | 45.43445 | 9.27869 | 345 ft | 15 kts | 284° |
| 2026-04-29 15:54 | 45.43486 | 9.27818 | 345 ft | 0 kts | 355° |
| 2026-04-29 15:55 | 45.43486 | 9.27817 | 345 ft | 0 kts | 355° |
| 2026-04-29 15:55 | 45.43526 | 9.27813 | 345 ft | 24 kts | 355° |
| 2026-04-29 15:55 | 45.43968 | 9.27766 | 349 ft | 100 kts | 356° |
| 2026-04-29 15:56 | 45.44874 | 9.27665 | 358 ft | 160 kts | 355° |
| 2026-04-29 15:56 | 45.46053 | 9.27528 | 770 ft | 174 kts | 358° |
| 2026-04-29 15:56 | 45.47265 | 9.27629 | 1353 ft | 177 kts | 11° |
| 2026-04-29 15:56 | 45.48484 | 9.27867 | 2054 ft | 180 kts | 8° |
| 2026-04-29 15:57 | 45.49752 | 9.28037 | 2698 ft | 186 kts | 6° |
| 2026-04-29 15:57 | 45.51045 | 9.28208 | 3278 ft | 192 kts | 15° |
| 2026-04-29 15:57 | 45.52161 | 9.29205 | 3890 ft | 193 kts | 53° |
| 2026-04-29 15:57 | 45.52567 | 9.30968 | 4524 ft | 194 kts | 95° |
| 2026-04-29 15:58 | 45.52029 | 9.32669 | 5170 ft | 195 kts | 128° |
| 2026-04-29 15:58 | 45.51142 | 9.34215 | 5680 ft | 207 kts | 127° |
| 2026-04-29 15:58 | 45.50244 | 9.35914 | 6094 ft | 225 kts | 124° |
| 2026-04-29 15:58 | 45.49311 | 9.37839 | 6505 ft | 246 kts | 123° |
| 2026-04-29 15:59 | 45.48338 | 9.39941 | 6979 ft | 264 kts | 123° |
| 2026-04-29 15:59 | 45.47279 | 9.42188 | 7515 ft | 281 kts | 123° |
| 2026-04-29 15:59 | 45.46185 | 9.44485 | 8264 ft | 287 kts | 123° |
| 2026-04-29 15:59 | 45.45092 | 9.46775 | 9080 ft | 290 kts | 123° |
| 2026-04-29 16:00 | 45.43948 | 9.49159 | 9885 ft | 294 kts | 123° |
| 2026-04-29 16:00 | 45.42801 | 9.51616 | 10587 ft | 301 kts | 123° |
| 2026-04-29 16:00 | 45.41609 | 9.54135 | 11029 ft | 318 kts | 124° |
| 2026-04-29 16:00 | 45.40319 | 9.56826 | 11411 ft | 335 kts | 123° |
| 2026-04-29 16:01 | 45.38987 | 9.59605 | 11769 ft | 353 kts | 126° |
| 2026-04-29 16:01 | 45.37314 | 9.62305 | 12274 ft | 364 kts | 138° |
| 2026-04-29 16:01 | 45.35312 | 9.64517 | 13013 ft | 367 kts | 147° |
| 2026-04-29 16:01 | 45.33143 | 9.66451 | 13701 ft | 371 kts | 150° |
| 2026-04-29 16:02 | 45.30924 | 9.68353 | 14314 ft | 375 kts | 150° |
| 2026-04-29 16:02 | 45.28704 | 9.70250 | 14892 ft | 380 kts | 150° |
| 2026-04-29 16:02 | 45.26408 | 9.72222 | 15538 ft | 385 kts | 150° |
| 2026-04-29 16:02 | 45.24119 | 9.74198 | 16204 ft | 388 kts | 150° |
| 2026-04-29 16:03 | 45.21825 | 9.76184 | 16772 ft | 392 kts | 150° |
| 2026-04-29 16:03 | 45.19470 | 9.78226 | 17379 ft | 397 kts | 150° |
| 2026-04-29 16:03 | 45.17109 | 9.80274 | 17993 ft | 399 kts | 149° |
| 2026-04-29 16:03 | 45.14712 | 9.82353 | 18574 ft | 403 kts | 149° |
| 2026-04-29 16:04 | 45.12324 | 9.84425 | 19119 ft | 407 kts | 149° |
| 2026-04-29 16:04 | 45.09910 | 9.86515 | 19672 ft | 410 kts | 150° |
| 2026-04-29 16:04 | 45.07464 | 9.88627 | 20202 ft | 415 kts | 149° |
| 2026-04-29 16:04 | 45.04982 | 9.90766 | 20733 ft | 418 kts | 149° |
| 2026-04-29 16:05 | 45.02467 | 9.92933 | 21394 ft | 416 kts | 149° |
| 2026-04-29 16:05 | 45.00015 | 9.95045 | 21983 ft | 419 kts | 150° |
| 2026-04-29 16:05 | 44.97492 | 9.97216 | 22484 ft | 424 kts | 150° |
| 2026-04-29 16:05 | 44.94936 | 9.99411 | 22993 ft | 428 kts | 150° |
| 2026-04-29 16:06 | 44.92399 | 10.01588 | 23522 ft | 431 kts | 150° |
| 2026-04-29 16:06 | 44.89794 | 10.03820 | 24041 ft | 434 kts | 150° |
| 2026-04-29 16:06 | 44.87219 | 10.06027 | 24527 ft | 438 kts | 150° |
| 2026-04-29 16:06 | 44.84592 | 10.08275 | 24993 ft | 441 kts | 150° |
| 2026-04-29 16:07 | 44.81932 | 10.10548 | 25445 ft | 445 kts | 150° |
| 2026-04-29 16:07 | 44.79274 | 10.12817 | 25891 ft | 448 kts | 150° |
| 2026-04-29 16:07 | 44.76617 | 10.15080 | 26328 ft | 451 kts | 150° |
| 2026-04-29 16:07 | 44.73963 | 10.17458 | 26742 ft | 455 kts | 143° |
| 2026-04-29 16:08 | 44.71701 | 10.20582 | 27127 ft | 460 kts | 127° |
| 2026-04-29 16:08 | 44.70054 | 10.24514 | 27535 ft | 462 kts | 111° |
| 2026-04-29 16:08 | 44.68994 | 10.28726 | 27938 ft | 463 kts | 107° |
| 2026-04-29 16:08 | 44.68003 | 10.33072 | 28267 ft | 467 kts | 106° |
| 2026-04-29 16:09 | 44.67003 | 10.37472 | 28607 ft | 470 kts | 107° |
| 2026-04-29 16:09 | 44.65987 | 10.41860 | 28947 ft | 473 kts | 107° |
| 2026-04-29 16:09 | 44.64955 | 10.46260 | 29260 ft | 475 kts | 107° |
| 2026-04-29 16:09 | 44.63918 | 10.50623 | 29561 ft | 478 kts | 107° |
| 2026-04-29 16:10 | 44.62859 | 10.55044 | 29845 ft | 480 kts | 107° |
| 2026-04-29 16:10 | 44.61789 | 10.59499 | 30115 ft | 482 kts | 108° |
| 2026-04-29 16:10 | 44.60714 | 10.63959 | 30386 ft | 484 kts | 108° |
| 2026-04-29 16:10 | 44.59629 | 10.68449 | 30627 ft | 486 kts | 108° |
| 2026-04-29 16:11 | 44.58530 | 10.72996 | 30960 ft | 485 kts | 108° |
| 2026-04-29 16:11 | 44.57447 | 10.77463 | 31294 ft | 484 kts | 108° |
| 2026-04-29 16:11 | 44.56361 | 10.81931 | 31627 ft | 483 kts | 108° |
| 2026-04-29 16:11 | 44.55278 | 10.86380 | 31934 ft | 482 kts | 108° |
| 2026-04-29 16:12 | 44.54158 | 10.90805 | 32222 ft | 482 kts | 111° |
| 2026-04-29 16:12 | 44.53319 | 10.93710 | 32403 ft | 482 kts | 113° |
| 2026-04-29 16:12 | 44.51387 | 10.99390 | 32787 ft | 481 kts | 118° |
| 2026-04-29 16:12 | 44.49751 | 11.03429 | 33069 ft | 480 kts | 122° |
| 2026-04-29 16:13 | 44.47932 | 11.07346 | 33344 ft | 479 kts | 125° |
| 2026-04-29 16:13 | 44.46014 | 11.11202 | 33608 ft | 479 kts | 126° |
| 2026-04-29 16:13 | 44.44092 | 11.15044 | 33895 ft | 478 kts | 126° |
| 2026-04-29 16:13 | 44.42195 | 11.18837 | 34146 ft | 478 kts | 126° |
| 2026-04-29 16:14 | 44.40286 | 11.22655 | 34407 ft | 477 kts | 126° |
| 2026-04-29 16:14 | 44.38375 | 11.26481 | 34666 ft | 477 kts | 126° |
| 2026-04-29 16:14 | 44.36499 | 11.30236 | 34865 ft | 476 kts | 126° |
| 2026-04-29 16:14 | 44.34579 | 11.34078 | 35070 ft | 476 kts | 126° |
| 2026-04-29 16:15 | 44.32697 | 11.37841 | 35276 ft | 476 kts | 126° |
| 2026-04-29 16:15 | 44.30794 | 11.41639 | 35444 ft | 476 kts | 126° |
| 2026-04-29 16:15 | 44.28880 | 11.45453 | 35592 ft | 477 kts | 126° |
| 2026-04-29 16:15 | 44.26965 | 11.49268 | 35737 ft | 478 kts | 126° |
| 2026-04-29 16:16 | 44.25050 | 11.53075 | 35876 ft | 479 kts | 126° |
| 2026-04-29 16:16 | 44.23144 | 11.56860 | 36010 ft | 480 kts | 126° |
| 2026-04-29 16:16 | 44.21224 | 11.60670 | 36141 ft | 480 kts | 126° |
| 2026-04-29 16:16 | 44.19304 | 11.64472 | 36267 ft | 481 kts | 126° |
| 2026-04-29 16:17 | 44.17358 | 11.68324 | 36393 ft | 481 kts | 127° |
| 2026-04-29 16:17 | 44.15422 | 11.72151 | 36519 ft | 481 kts | 127° |
| 2026-04-29 16:17 | 44.13502 | 11.75939 | 36663 ft | 482 kts | 127° |
| 2026-04-29 16:17 | 44.11560 | 11.79764 | 36792 ft | 483 kts | 127° |
| 2026-04-29 16:18 | 44.09614 | 11.83596 | 36919 ft | 483 kts | 127° |
| 2026-04-29 16:18 | 44.07692 | 11.87371 | 37032 ft | 483 kts | 127° |
| 2026-04-29 16:18 | 44.05727 | 11.91228 | 37057 ft | 484 kts | 127° |
| 2026-04-29 16:19 | 44.01820 | 11.98882 | 37066 ft | 485 kts | 127° |
| 2026-04-29 16:19 | 43.97907 | 12.06527 | 37071 ft | 485 kts | 127° |
| 2026-04-29 16:20 | 43.93998 | 12.14144 | 37068 ft | 485 kts | 127° |
| 2026-04-29 16:20 | 43.90078 | 12.21766 | 37064 ft | 485 kts | 127° |
| 2026-04-29 16:21 | 43.86137 | 12.29407 | 37060 ft | 485 kts | 127° |
| 2026-04-29 16:21 | 43.82214 | 12.36997 | 37061 ft | 485 kts | 127° |
| 2026-04-29 16:22 | 43.78284 | 12.44581 | 37060 ft | 485 kts | 127° |
| 2026-04-29 16:22 | 43.74351 | 12.52144 | 37055 ft | 485 kts | 127° |
| 2026-04-29 16:23 | 43.70391 | 12.59744 | 37052 ft | 485 kts | 127° |
| 2026-04-29 16:23 | 43.66434 | 12.67317 | 37057 ft | 485 kts | 127° |
| 2026-04-29 16:24 | 43.62497 | 12.74835 | 37059 ft | 485 kts | 127° |
| 2026-04-29 16:24 | 43.58546 | 12.82355 | 37057 ft | 485 kts | 127° |
| 2026-04-29 16:25 | 43.54567 | 12.89908 | 37055 ft | 485 kts | 127° |
| 2026-04-29 16:25 | 43.50601 | 12.97419 | 37051 ft | 484 kts | 127° |
| 2026-04-29 16:26 | 43.46643 | 13.04899 | 37051 ft | 485 kts | 127° |
| 2026-04-29 16:26 | 43.42662 | 13.12407 | 37050 ft | 485 kts | 127° |
| 2026-04-29 16:27 | 43.38685 | 13.19885 | 37049 ft | 485 kts | 127° |
| 2026-04-29 16:27 | 43.34685 | 13.27382 | 37052 ft | 485 kts | 127° |
| 2026-04-29 16:28 | 43.30713 | 13.34812 | 37052 ft | 485 kts | 127° |
| 2026-04-29 16:28 | 43.26698 | 13.42301 | 37048 ft | 485 kts | 127° |
| 2026-04-29 16:29 | 43.22707 | 13.49730 | 37053 ft | 485 kts | 128° |
| 2026-04-29 16:29 | 43.18686 | 13.57192 | 37043 ft | 485 kts | 128° |
| 2026-04-29 16:30 | 43.14687 | 13.64592 | 37047 ft | 485 kts | 128° |
| 2026-04-29 16:30 | 43.10634 | 13.72085 | 37044 ft | 485 kts | 128° |
| 2026-04-29 16:31 | 43.06615 | 13.79488 | 37044 ft | 485 kts | 128° |
| 2026-04-29 16:31 | 43.02573 | 13.86919 | 37035 ft | 484 kts | 128° |
| 2026-04-29 16:32 | 42.98554 | 13.94285 | 37030 ft | 484 kts | 128° |
| 2026-04-29 16:32 | 42.94546 | 14.01618 | 37020 ft | 484 kts | 128° |
| 2026-04-29 16:33 | 42.88503 | 14.12628 | 37014 ft | 484 kts | 128° |
| 2026-04-29 16:33 | 42.84433 | 14.20020 | 37019 ft | 484 kts | 129° |
| 2026-04-29 16:34 | 42.80404 | 14.27316 | 37019 ft | 485 kts | 128° |
| 2026-04-29 16:34 | 42.76378 | 14.34594 | 37017 ft | 484 kts | 128° |
| 2026-04-29 16:35 | 42.72336 | 14.41882 | 37012 ft | 484 kts | 128° |
| 2026-04-29 16:35 | 42.68277 | 14.49187 | 37016 ft | 484 kts | 128° |
| 2026-04-29 16:36 | 42.64223 | 14.56463 | 37015 ft | 484 kts | 128° |
| 2026-04-29 16:36 | 42.60162 | 14.63736 | 37021 ft | 484 kts | 128° |
| 2026-04-29 16:37 | 42.56092 | 14.71009 | 37019 ft | 484 kts | 129° |
| 2026-04-29 16:37 | 42.52697 | 14.77058 | 37021 ft | 484 kts | 129° |
| 2026-04-29 16:38 | 42.47966 | 14.85469 | 37020 ft | 484 kts | 129° |
| 2026-04-29 16:38 | 42.43898 | 14.92682 | 37019 ft | 483 kts | 129° |
| 2026-04-29 16:39 | 42.39811 | 14.99914 | 37019 ft | 484 kts | 129° |
| 2026-04-29 16:39 | 42.35737 | 15.07104 | 37017 ft | 483 kts | 129° |
| 2026-04-29 16:40 | 42.31651 | 15.14298 | 37011 ft | 483 kts | 129° |
| 2026-04-29 16:40 | 42.27561 | 15.21482 | 37011 ft | 483 kts | 129° |
| 2026-04-29 16:41 | 42.23466 | 15.28657 | 37005 ft | 483 kts | 129° |
| 2026-04-29 16:41 | 42.19393 | 15.35779 | 37009 ft | 483 kts | 129° |
| 2026-04-29 16:42 | 42.15288 | 15.42935 | 37006 ft | 483 kts | 129° |
| 2026-04-29 16:42 | 42.11179 | 15.50079 | 37007 ft | 483 kts | 129° |
| 2026-04-29 16:43 | 42.07064 | 15.57223 | 37006 ft | 483 kts | 129° |
| 2026-04-29 16:43 | 42.02970 | 15.64315 | 37004 ft | 483 kts | 129° |
| 2026-04-29 16:44 | 41.98845 | 15.71443 | 37003 ft | 483 kts | 129° |
| 2026-04-29 16:44 | 41.94691 | 15.78602 | 37011 ft | 483 kts | 129° |
| 2026-04-29 16:45 | 41.90553 | 15.85718 | 37016 ft | 483 kts | 129° |
| 2026-04-29 16:45 | 41.86406 | 15.92830 | 37025 ft | 482 kts | 129° |
| 2026-04-29 16:46 | 41.82258 | 15.99930 | 37032 ft | 482 kts | 129° |
| 2026-04-29 16:46 | 41.78121 | 16.06991 | 37034 ft | 482 kts | 129° |
| 2026-04-29 16:47 | 41.73965 | 16.14069 | 37029 ft | 482 kts | 129° |
| 2026-04-29 16:47 | 41.69843 | 16.21073 | 37016 ft | 482 kts | 129° |
| 2026-04-29 16:48 | 41.65676 | 16.28138 | 37005 ft | 483 kts | 129° |
| 2026-04-29 16:48 | 41.61525 | 16.35159 | 37000 ft | 482 kts | 129° |
| 2026-04-29 16:49 | 41.57380 | 16.42154 | 37003 ft | 482 kts | 129° |
| 2026-04-29 16:49 | 41.53205 | 16.49182 | 37002 ft | 482 kts | 129° |
| 2026-04-29 16:50 | 41.49049 | 16.56166 | 37002 ft | 482 kts | 129° |
| 2026-04-29 16:50 | 41.44881 | 16.63150 | 37004 ft | 482 kts | 129° |
| 2026-04-29 16:51 | 41.40716 | 16.70113 | 37002 ft | 482 kts | 130° |
| 2026-04-29 16:51 | 41.36524 | 16.77107 | 37001 ft | 482 kts | 130° |
| 2026-04-29 16:52 | 41.32346 | 16.84062 | 37003 ft | 482 kts | 130° |
| 2026-04-29 16:52 | 41.28147 | 16.91032 | 37003 ft | 482 kts | 130° |
| 2026-04-29 16:53 | 41.23971 | 16.97950 | 37004 ft | 481 kts | 130° |
| 2026-04-29 16:53 | 41.19785 | 17.04869 | 37006 ft | 481 kts | 130° |
| 2026-04-29 16:54 | 41.15614 | 17.11747 | 37005 ft | 481 kts | 130° |
| 2026-04-29 16:54 | 41.11415 | 17.18657 | 37002 ft | 481 kts | 130° |
| 2026-04-29 16:55 | 41.07198 | 17.25582 | 37003 ft | 482 kts | 130° |
| 2026-04-29 16:55 | 41.03017 | 17.32430 | 37004 ft | 481 kts | 130° |
| 2026-04-29 16:56 | 40.98810 | 17.39307 | 37007 ft | 481 kts | 130° |
| 2026-04-29 16:56 | 40.94578 | 17.46208 | 37009 ft | 481 kts | 130° |
| 2026-04-29 16:57 | 40.90363 | 17.53065 | 37018 ft | 481 kts | 130° |
| 2026-04-29 16:57 | 40.86147 | 17.59910 | 37015 ft | 481 kts | 130° |
| 2026-04-29 16:58 | 40.81902 | 17.66787 | 37021 ft | 481 kts | 131° |
| 2026-04-29 16:58 | 40.77612 | 17.73721 | 37027 ft | 481 kts | 131° |
| 2026-04-29 16:59 | 40.73401 | 17.80512 | 37026 ft | 481 kts | 131° |
| 2026-04-29 16:59 | 40.69125 | 17.87391 | 37028 ft | 481 kts | 131° |
| 2026-04-29 17:00 | 40.67010 | 17.90789 | 36862 ft | 482 kts | 131° |
| 2026-04-29 17:00 | 40.64880 | 17.94206 | 36554 ft | 479 kts | 131° |
| 2026-04-29 17:00 | 40.62756 | 17.97606 | 36272 ft | 475 kts | 131° |
| 2026-04-29 17:00 | 40.60589 | 18.00836 | 36023 ft | 472 kts | 135° |
| 2026-04-29 17:01 | 40.58273 | 18.03913 | 35635 ft | 470 kts | 137° |
| 2026-04-29 17:01 | 40.55916 | 18.06919 | 35078 ft | 471 kts | 137° |
| 2026-04-29 17:01 | 40.53558 | 18.09909 | 34448 ft | 472 kts | 137° |
| 2026-04-29 17:01 | 40.51211 | 18.12884 | 33708 ft | 473 kts | 137° |
| 2026-04-29 17:02 | 40.48844 | 18.15886 | 32977 ft | 474 kts | 137° |
| 2026-04-29 17:02 | 40.46559 | 18.18984 | 32176 ft | 477 kts | 134° |
| 2026-04-29 17:02 | 40.44349 | 18.22243 | 31287 ft | 481 kts | 133° |
| 2026-04-29 17:02 | 40.42137 | 18.25573 | 30485 ft | 481 kts | 132° |
| 2026-04-29 17:03 | 40.39952 | 18.28855 | 29825 ft | 478 kts | 132° |
| 2026-04-29 17:03 | 40.37767 | 18.32120 | 29141 ft | 475 kts | 133° |
| 2026-04-29 17:03 | 40.35573 | 18.35375 | 28449 ft | 472 kts | 133° |
| 2026-04-29 17:03 | 40.33392 | 18.38599 | 27785 ft | 469 kts | 133° |
| 2026-04-29 17:04 | 40.31211 | 18.41811 | 27203 ft | 465 kts | 133° |
| 2026-04-29 17:04 | 40.29086 | 18.44937 | 26675 ft | 459 kts | 133° |
| 2026-04-29 17:04 | 40.26944 | 18.48081 | 26181 ft | 452 kts | 133° |
| 2026-04-29 17:04 | 40.24849 | 18.51152 | 25691 ft | 448 kts | 133° |
| 2026-04-29 17:05 | 40.22782 | 18.54176 | 25202 ft | 443 kts | 133° |
| 2026-04-29 17:05 | 40.20713 | 18.57200 | 24704 ft | 439 kts | 133° |
| 2026-04-29 17:05 | 40.18669 | 18.60185 | 24219 ft | 435 kts | 133° |
| 2026-04-29 17:05 | 40.16653 | 18.63124 | 23741 ft | 432 kts | 132° |
| 2026-04-29 17:06 | 40.14658 | 18.66035 | 23254 ft | 428 kts | 133° |
| 2026-04-29 17:06 | 40.12614 | 18.69011 | 22739 ft | 424 kts | 133° |
| 2026-04-29 17:06 | 40.10640 | 18.71885 | 22276 ft | 420 kts | 133° |
| 2026-04-29 17:06 | 40.08673 | 18.74745 | 21794 ft | 417 kts | 133° |
| 2026-04-29 17:07 | 40.06720 | 18.77580 | 21320 ft | 413 kts | 133° |
| 2026-04-29 17:07 | 40.04793 | 18.80378 | 20848 ft | 410 kts | 133° |
| 2026-04-29 17:07 | 40.02882 | 18.83150 | 20353 ft | 408 kts | 133° |
| 2026-04-29 17:07 | 40.00999 | 18.85877 | 19873 ft | 405 kts | 133° |
| 2026-04-29 17:08 | 39.99115 | 18.88603 | 19417 ft | 400 kts | 133° |
| 2026-04-29 17:08 | 39.97233 | 18.91325 | 18944 ft | 397 kts | 133° |
| 2026-04-29 17:08 | 39.95387 | 18.93992 | 18477 ft | 395 kts | 133° |
| 2026-04-29 17:08 | 39.93541 | 18.96659 | 17995 ft | 392 kts | 133° |
| 2026-04-29 17:09 | 39.91713 | 18.99296 | 17496 ft | 390 kts | 133° |
| 2026-04-29 17:09 | 39.89889 | 19.01921 | 17020 ft | 388 kts | 133° |
| 2026-04-29 17:09 | 39.88056 | 19.04555 | 16544 ft | 386 kts | 133° |
| 2026-04-29 17:09 | 39.86244 | 19.07158 | 16074 ft | 382 kts | 133° |
| 2026-04-29 17:10 | 39.84462 | 19.09720 | 15597 ft | 380 kts | 133° |
| 2026-04-29 17:10 | 39.82703 | 19.12246 | 15153 ft | 376 kts | 133° |
| 2026-04-29 17:10 | 39.80940 | 19.14778 | 14690 ft | 374 kts | 132° |
| 2026-04-29 17:10 | 39.79188 | 19.17292 | 14224 ft | 372 kts | 132° |
| 2026-04-29 17:11 | 39.77431 | 19.19811 | 13776 ft | 367 kts | 132° |
| 2026-04-29 17:11 | 39.75724 | 19.22256 | 13328 ft | 365 kts | 132° |
| 2026-04-29 17:11 | 39.74025 | 19.24688 | 12876 ft | 363 kts | 132° |
| 2026-04-29 17:11 | 39.72349 | 19.27085 | 12430 ft | 361 kts | 132° |
| 2026-04-29 17:12 | 39.70649 | 19.29513 | 11973 ft | 358 kts | 132° |
| 2026-04-29 17:12 | 39.68978 | 19.31897 | 11517 ft | 356 kts | 132° |
| 2026-04-29 17:12 | 39.67327 | 19.34252 | 11069 ft | 354 kts | 132° |
| 2026-04-29 17:12 | 39.66218 | 19.35832 | 10772 ft | 353 kts | 132° |
| 2026-04-29 17:13 | 39.64069 | 19.38894 | 10451 ft | 339 kts | 132° |
| 2026-04-29 17:13 | 39.62505 | 19.41117 | 10331 ft | 325 kts | 132° |
| 2026-04-29 17:13 | 39.61004 | 19.43250 | 10210 ft | 312 kts | 132° |
| 2026-04-29 17:13 | 39.59561 | 19.45298 | 10085 ft | 301 kts | 132° |
| 2026-04-29 17:14 | 39.58174 | 19.47264 | 9785 ft | 297 kts | 132° |
| 2026-04-29 17:14 | 39.56768 | 19.49259 | 9415 ft | 295 kts | 132° |
| 2026-04-29 17:14 | 39.55391 | 19.51212 | 9086 ft | 293 kts | 132° |
| 2026-04-29 17:14 | 39.54023 | 19.53150 | 8758 ft | 291 kts | 132° |
| 2026-04-29 17:15 | 39.52669 | 19.55069 | 8428 ft | 289 kts | 132° |
| 2026-04-29 17:15 | 39.51323 | 19.56972 | 8097 ft | 286 kts | 132° |
| 2026-04-29 17:15 | 39.49976 | 19.58874 | 7761 ft | 284 kts | 132° |
| 2026-04-29 17:15 | 39.48663 | 19.60728 | 7441 ft | 282 kts | 132° |
| 2026-04-29 17:16 | 39.47332 | 19.62606 | 7121 ft | 279 kts | 132° |
| 2026-04-29 17:16 | 39.46023 | 19.64452 | 6793 ft | 277 kts | 132° |
| 2026-04-29 17:16 | 39.44734 | 19.66268 | 6501 ft | 273 kts | 133° |
| 2026-04-29 17:16 | 39.43424 | 19.68114 | 6185 ft | 269 kts | 133° |
| 2026-04-29 17:17 | 39.42154 | 19.69908 | 5867 ft | 266 kts | 133° |
| 2026-04-29 17:17 | 39.41118 | 19.71372 | 5629 ft | 265 kts | 133° |
| 2026-04-29 17:17 | 39.40019 | 19.73338 | 5283 ft | 265 kts | 112° |
| 2026-04-29 17:17 | 39.39670 | 19.75644 | 4967 ft | 262 kts | 90° |
| 2026-04-29 17:18 | 39.39716 | 19.78011 | 4645 ft | 260 kts | 87° |
| 2026-04-29 17:18 | 39.39786 | 19.80332 | 4345 ft | 258 kts | 88° |
| 2026-04-29 17:18 | 39.39840 | 19.82633 | 4056 ft | 257 kts | 88° |
| 2026-04-29 17:18 | 39.39881 | 19.84912 | 3755 ft | 249 kts | 88° |
| 2026-04-29 17:19 | 39.39977 | 19.87136 | 3448 ft | 243 kts | 82° |
| 2026-04-29 17:19 | 39.40296 | 19.89203 | 3303 ft | 230 kts | 74° |
| 2026-04-29 17:19 | 39.40731 | 19.91154 | 3275 ft | 216 kts | 73° |
| 2026-04-29 17:19 | 39.41147 | 19.92946 | 3254 ft | 208 kts | 72° |
| 2026-04-29 17:20 | 39.41750 | 19.94634 | 3218 ft | 206 kts | 45° |
| 2026-04-29 17:20 | 39.42947 | 19.95569 | 3203 ft | 202 kts | 11° |
| 2026-04-29 17:20 | 39.44302 | 19.95529 | 3005 ft | 193 kts | 348° |
| 2026-04-29 17:20 | 39.45600 | 19.95097 | 2687 ft | 191 kts | 344° |
| 2026-04-29 17:21 | 39.46849 | 19.94673 | 2431 ft | 177 kts | 346° |
| 2026-04-29 17:21 | 39.48002 | 19.94339 | 2206 ft | 163 kts | 347° |
| 2026-04-29 17:21 | 39.49075 | 19.94059 | 1965 ft | 150 kts | 348° |
| 2026-04-29 17:21 | 39.50057 | 19.93812 | 1783 ft | 139 kts | 348° |
| 2026-04-29 17:22 | 39.51008 | 19.93571 | 1629 ft | 138 kts | 348° |
| 2026-04-29 17:22 | 39.51948 | 19.93330 | 1449 ft | 138 kts | 348° |
| 2026-04-29 17:22 | 39.52886 | 19.93089 | 1264 ft | 138 kts | 348° |
| 2026-04-29 17:22 | 39.53827 | 19.92848 | 1080 ft | 137 kts | 348° |
| 2026-04-29 17:23 | 39.54772 | 19.92606 | 893 ft | 137 kts | 348° |
| 2026-04-29 17:23 | 39.55707 | 19.92366 | 710 ft | 137 kts | 348° |
| 2026-04-29 17:23 | 39.56646 | 19.92125 | 527 ft | 136 kts | 348° |
| 2026-04-29 17:23 | 39.57554 | 19.91891 | 355 ft | 136 kts | 347° |
| 2026-04-29 17:24 | 39.58506 | 19.91648 | 176 ft | 135 kts | 348° |
| 2026-04-29 17:24 | 39.59427 | 19.91420 | 7 ft | 130 kts | 346° |
| 2026-04-29 17:24 | 39.60183 | 19.91211 | 2 ft | 86 kts | 348° |
| 2026-04-29 17:24 | 39.60602 | 19.91103 | 2 ft | 41 kts | 349° |
| 2026-04-29 17:25 | 39.60863 | 19.91038 | 7 ft | 35 kts | 349° |
| 2026-04-29 17:25 | 39.61030 | 19.91036 | 11 ft | 13 kts | 34° |
| 2026-04-29 17:25 | 39.61024 | 19.91129 | 10 ft | 14 kts | 161° |
| 2026-04-29 17:25 | 39.60924 | 19.91157 | 6 ft | 15 kts | 169° |
| 2026-04-29 17:26 | 39.60813 | 19.91184 | 4 ft | 16 kts | 169° |
| 2026-04-29 17:26 | 39.60721 | 19.91208 | 4 ft | 7 kts | 168° |
| 2026-04-29 17:26 | 39.60695 | 19.91223 | 3 ft | 4 kts | 123° |
| 2026-04-29 17:26 | 39.60693 | 19.91263 | 4 ft | 4 kts | 81° |
| 2026-04-29 17:27 | 39.60700 | 19.91306 | 4 ft | 4 kts | 78° |
| 2026-04-29 17:27 | 39.60704 | 19.91331 | 5 ft | 1 kts | 78° |
| 2026-04-29 17:27 | 39.60705 | 19.91341 | 6 ft | 1 kts | 79° |
| 2026-04-29 17:27 | 39.60706 | 19.91350 | 6 ft | 0 kts | 79° |